Time;durP1;ratioP1;P1;durP2;ratioP2;P2;SDS_P1;SDS_P2;PMS_P1;PMS_P2;Temp;Humidity;BMP_temperature;BMP_pressure;BME280_temperature;BME280_humidity;BME280_pressure;Samples;Min_cycle;Max_cycle;Signal;HPM_P1;HPM_P2
2022/01/13 00:02:03;;;;;;;40.10;24.67;;;2.80;66.40;;;;;;5072540;28;20044;-67
2022/01/13 00:04:29;;;;;;;38.90;23.95;;;2.80;66.30;;;;;;5073217;28;20388;-66
2022/01/13 00:06:55;;;;;;;41.00;25.48;;;2.80;66.40;;;;;;5061025;28;20021;-67
2022/01/13 00:09:21;;;;;;;42.28;24.25;;;2.70;67.00;;;;;;5074420;28;20033;-66
2022/01/13 00:22:48;;;;;;;47.10;26.42;;;2.80;66.10;;;;;;5062083;28;20048;-66
2022/01/13 00:25:04;;;;;;;43.75;25.60;;;2.80;66.00;;;;;;5072955;28;20073;-66
2022/01/13 00:27:30;;;;;;;40.53;24.50;;;2.70;65.90;;;;;;5073413;28;20386;-66
2022/01/13 00:29:59;;;;;;;41.47;25.50;;;2.70;66.10;;;;;;5073008;28;20466;-66
2022/01/13 00:32:28;;;;;;;41.05;25.00;;;2.70;66.30;;;;;;5067654;28;20213;-65
2022/01/13 00:34:54;;;;;;;38.17;24.85;;;2.70;66.40;;;;;;5073307;28;20024;-66
2022/01/13 00:37:20;;;;;;;38.92;24.55;;;2.60;66.30;;;;;;5071647;28;20025;-66
2022/01/13 00:39:46;;;;;;;39.63;24.13;;;2.60;66.30;;;;;;5072553;28;20032;-66
2022/01/13 00:42:11;;;;;;;40.42;24.95;;;2.70;66.30;;;;;;5071736;28;20028;-66
2022/01/13 00:44:38;;;;;;;39.47;24.92;;;2.60;66.30;;;;;;5073500;28;20116;-67
2022/01/13 00:47:08;;;;;;;40.83;25.33;;;2.60;66.60;;;;;;5072760;28;20025;-66
2022/01/13 00:49:34;;;;;;;39.30;24.85;;;2.50;66.50;;;;;;5069913;28;20106;-67
2022/01/13 00:52:00;;;;;;;44.58;26.27;;;2.50;66.60;;;;;;5071772;28;20457;-67
2022/01/13 00:54:25;;;;;;;43.25;25.23;;;2.50;66.70;;;;;;5072946;28;20025;-66
2022/01/13 00:56:51;;;;;;;37.95;24.17;;;2.50;66.70;;;;;;5072751;28;20078;-67
2022/01/13 00:59:17;;;;;;;42.35;25.98;;;2.40;66.90;;;;;;5072851;28;20106;-66
2022/01/13 01:01:47;;;;;;;40.13;25.80;;;2.40;67.00;;;;;;5073159;28;20454;-66
2022/01/13 01:04:13;;;;;;;40.60;25.13;;;2.40;67.00;;;;;;5072766;28;20029;-66
2022/01/13 01:06:40;;;;;;;42.50;25.63;;;2.40;67.10;;;;;;5068476;28;20378;-68
2022/01/13 01:09:13;;;;;;;41.13;26.75;;;2.50;67.00;;;;;;5070888;28;20530;-66
2022/01/13 01:11:39;;;;;;;40.47;25.45;;;2.50;66.90;;;;;;5070875;28;20037;-67
2022/01/13 01:14:07;;;;;;;40.35;25.55;;;2.50;67.00;;;;;;5073001;28;20021;-66
2022/01/13 01:16:35;;;;;;;43.60;26.27;;;2.60;66.80;;;;;;5071401;28;20036;-67
2022/01/13 01:19:04;;;;;;;43.60;27.33;;;2.60;66.50;;;;;;5071934;28;20029;-66
2022/01/13 01:21:46;;;;;;;40.20;25.58;;;2.70;66.40;;;;;;5072852;28;20044;-66
2022/01/13 01:26:57;;;;;;;43.97;27.15;;;2.90;65.80;;;;;;5071024;28;20392;-66
2022/01/13 01:29:28;;;;;;;42.50;26.88;;;2.90;65.40;;;;;;5071112;28;20035;-66
2022/01/13 01:31:56;;;;;;;44.28;28.02;;;2.90;65.50;;;;;;5071842;28;20036;-67
2022/01/13 01:37:15;;;;;;;44.90;28.02;;;2.80;65.30;;;;;;5072096;28;20039;-67
2022/01/13 01:39:42;;;;;;;46.70;28.02;;;2.90;65.40;;;;;;5072806;28;20037;-67
2022/01/13 01:42:09;;;;;;;44.53;27.70;;;2.90;65.30;;;;;;5071776;28;20478;-68
2022/01/13 01:44:39;;;;;;;44.40;28.35;;;2.90;65.20;;;;;;5072071;28;20388;-67
2022/01/13 01:47:08;;;;;;;45.30;27.83;;;3.00;65.20;;;;;;5071693;28;20020;-67
2022/01/13 01:49:39;;;;;;;43.97;27.67;;;2.90;65.20;;;;;;5072019;28;20058;-67
2022/01/13 01:52:06;;;;;;;43.08;28.10;;;2.80;65.40;;;;;;5070288;28;20540;-64
2022/01/13 01:54:32;;;;;;;45.70;28.17;;;2.80;65.60;;;;;;5071967;28;20052;-67
2022/01/13 01:56:58;;;;;;;47.47;29.67;;;2.80;65.80;;;;;;5071107;28;20473;-67
2022/01/13 01:59:28;;;;;;;47.58;29.45;;;2.80;65.80;;;;;;5053505;28;20082;-67
2022/01/13 02:01:54;;;;;;;47.05;28.80;;;2.70;66.00;;;;;;5071885;28;20112;-67
2022/01/13 02:04:22;;;;;;;50.97;30.00;;;2.70;66.00;;;;;;5070865;28;20115;-68
2022/01/13 02:06:48;;;;;;;48.58;29.25;;;2.70;66.00;;;;;;5072307;28;20097;-65
2022/01/13 02:09:17;;;;;;;46.75;29.05;;;2.60;66.10;;;;;;5071099;28;20036;-66
2022/01/13 02:11:49;;;;;;;45.00;28.83;;;2.60;66.30;;;;;;5070607;28;20029;-66
2022/01/13 02:14:32;;;;;;;48.47;30.07;;;2.70;66.90;;;;;;5070184;28;20112;-66
2022/01/13 02:17:12;;;;;;;51.85;30.45;;;2.70;66.20;;;;;;5071212;28;20039;-67
2022/01/13 02:19:41;;;;;;;47.13;29.58;;;2.70;66.00;;;;;;5070529;28;20135;-67
2022/01/13 02:22:08;;;;;;;48.75;29.65;;;2.80;65.90;;;;;;5070496;28;20087;-67
2022/01/13 02:24:34;;;;;;;55.92;32.17;;;2.80;65.80;;;;;;5069195;28;20028;-67
2022/01/13 02:27:01;;;;;;;50.60;30.05;;;2.70;65.70;;;;;;5071204;28;20028;-67
2022/01/13 02:29:27;;;;;;;47.65;29.10;;;2.80;65.80;;;;;;5071171;28;20020;-66
2022/01/13 02:31:52;;;;;;;43.45;28.38;;;2.70;66.10;;;;;;5071476;28;20028;-66
2022/01/13 02:34:20;;;;;;;49.08;30.70;;;2.70;66.30;;;;;;5069782;28;20484;-66
2022/01/13 02:36:48;;;;;;;45.97;29.27;;;2.70;66.30;;;;;;5071412;28;20029;-66
2022/01/13 02:39:14;;;;;;;47.17;29.63;;;2.70;66.30;;;;;;5070850;28;20036;-66
2022/01/13 02:41:40;;;;;;;47.88;29.10;;;2.70;66.40;;;;;;5068655;28;20461;-66
2022/01/13 02:44:14;;;;;;;47.83;30.35;;;2.70;66.30;;;;;;5079472;28;20049;-66
2022/01/13 02:49:10;;;;;;;49.97;30.17;;;2.70;66.30;;;;;;5071113;28;20021;-67
2022/01/13 02:51:37;;;;;;;47.42;30.48;;;2.80;66.10;;;;;;5071846;28;20051;-66
2022/01/13 02:54:05;;;;;;;49.65;30.48;;;2.80;65.90;;;;;;5069593;28;20027;-66
2022/01/13 02:56:31;;;;;;;50.75;30.45;;;2.90;65.80;;;;;;5069440;28;20382;-66
2022/01/13 02:58:57;;;;;;;51.70;31.02;;;2.80;66.40;;;;;;5069557;28;20385;-66
2022/01/13 03:01:24;;;;;;;49.58;30.40;;;2.90;65.80;;;;;;5066221;28;20033;-66
2022/01/13 03:03:50;;;;;;;49.83;31.23;;;2.90;65.60;;;;;;5071492;28;20043;-66
2022/01/13 03:06:27;;;;;;;52.50;30.55;;;2.90;65.60;;;;;;5069583;28;20449;-67
2022/01/13 03:08:53;;;;;;;50.42;30.75;;;2.90;65.50;;;;;;5064390;28;20051;-66
2022/01/13 03:11:19;;;;;;;49.00;29.73;;;2.90;65.40;;;;;;5071048;28;20029;-66
2022/01/13 03:13:45;;;;;;;50.30;31.10;;;2.90;65.50;;;;;;5069775;28;20721;-67
2022/01/13 03:16:15;;;;;;;51.05;32.17;;;3.00;65.50;;;;;;5072135;28;20029;-67
2022/01/13 03:19:00;;;;;;;49.53;30.42;;;2.90;65.40;;;;;;5074004;28;20033;-67
2022/01/13 03:21:26;;;;;;;45.13;28.70;;;2.90;65.30;;;;;;5074827;28;20035;-66
2022/01/13 03:23:52;;;;;;;46.03;29.02;;;3.00;65.20;;;;;;5075221;28;20453;-66
2022/01/13 03:26:20;;;;;;;46.80;29.27;;;3.10;64.90;;;;;;5074512;28;20032;-68
2022/01/13 03:29:04;;;;;;;46.92;30.52;;;3.10;64.80;;;;;;5070373;28;20141;-66
2022/01/13 03:31:29;;;;;;;50.63;29.77;;;3.10;64.80;;;;;;5073767;28;20028;-65
2022/01/13 03:33:55;;;;;;;45.83;28.20;;;3.10;64.90;;;;;;5074577;28;20077;-65
2022/01/13 03:36:21;;;;;;;46.38;28.23;;;3.10;64.90;;;;;;5072539;28;20036;-66
2022/01/13 03:38:47;;;;;;;48.30;29.35;;;3.10;64.80;;;;;;5073258;28;20024;-66
2022/01/13 03:41:13;;;;;;;47.63;28.45;;;3.20;64.70;;;;;;5074313;28;20028;-66
2022/01/13 03:43:39;;;;;;;47.60;30.65;;;3.20;64.30;;;;;;5074377;28;20093;-68
2022/01/13 03:46:06;;;;;;;48.55;29.88;;;3.20;64.50;;;;;;5072807;28;20031;-67
2022/01/13 03:48:33;;;;;;;46.78;28.27;;;3.20;64.30;;;;;;5074357;28;20048;-66
2022/01/13 03:50:59;;;;;;;45.42;28.38;;;3.20;64.40;;;;;;5074243;28;20032;-65
2022/01/13 03:53:30;;;;;;;48.67;30.15;;;3.20;64.40;;;;;;5073848;28;20024;-66
2022/01/13 03:56:17;;;;;;;46.40;28.83;;;3.30;64.40;;;;;;5074184;28;20035;-66
2022/01/13 03:59:36;;;;;;;46.08;28.98;;;3.20;64.30;;;;;;5073012;28;20039;-66
2022/01/13 04:02:05;;;;;;;49.47;28.00;;;3.30;64.40;;;;;;5009175;28;20427;-66
2022/01/13 04:04:34;;;;;;;48.63;28.35;;;3.30;64.20;;;;;;5064073;28;20044;-67
2022/01/13 04:07:07;;;;;;;47.55;28.65;;;3.40;64.10;;;;;;5072445;28;20404;-66
2022/01/13 04:09:32;;;;;;;43.50;27.95;;;3.40;64.10;;;;;;5074536;28;20035;-66
2022/01/13 04:12:01;;;;;;;45.28;28.77;;;3.50;64.00;;;;;;5073599;28;20049;-66
2022/01/13 04:14:30;;;;;;;45.72;28.05;;;3.40;63.80;;;;;;5072829;28;20469;-66
2022/01/13 04:16:56;;;;;;;45.58;28.85;;;3.40;64.00;;;;;;5075386;28;20358;-67
2022/01/13 04:19:22;;;;;;;44.88;28.38;;;3.40;64.00;;;;;;5083100;28;20162;-67
2022/01/13 04:21:47;;;;;;;43.45;26.80;;;3.40;63.70;;;;;;5073784;28;20386;-67
2022/01/13 04:24:13;;;;;;;47.15;27.23;;;3.40;63.60;;;;;;5072844;28;20048;-67
2022/01/13 04:26:42;;;;;;;42.67;27.88;;;3.40;63.90;;;;;;5073488;28;20079;-67
2022/01/13 04:31:38;;;;;;;41.33;27.65;;;3.40;63.70;;;;;;5073611;28;20034;-66
2022/01/13 04:34:04;;;;;;;43.53;26.92;;;3.40;63.60;;;;;;5080352;28;20051;-67
2022/01/13 04:36:30;;;;;;;43.40;27.40;;;3.50;63.60;;;;;;5072144;28;20358;-66
2022/01/13 04:38:56;;;;;;;42.42;27.10;;;3.50;64.00;;;;;;5072288;28;20107;-67
2022/01/13 04:41:34;;;;;;;42.13;26.30;;;3.50;63.40;;;;;;5071676;28;20032;-66
2022/01/13 04:44:01;;;;;;;40.78;26.48;;;3.40;63.30;;;;;;5072101;28;20418;-66
2022/01/13 04:46:27;;;;;;;43.30;27.83;;;3.40;63.30;;;;;;5072709;28;20107;-66
2022/01/13 04:48:53;;;;;;;42.60;26.40;;;3.40;63.50;;;;;;5073661;28;20082;-66
2022/01/13 04:51:19;;;;;;;44.88;27.92;;;3.40;63.30;;;;;;5069884;28;20033;-66
2022/01/13 04:53:45;;;;;;;44.08;27.48;;;3.40;63.40;;;;;;5073124;28;20149;-66
2022/01/13 04:56:15;;;;;;;46.63;27.13;;;3.40;63.40;;;;;;5071973;28;20056;-66
2022/01/13 04:58:41;;;;;;;43.83;27.42;;;3.40;63.40;;;;;;5072968;28;20055;-66
2022/01/13 05:01:07;;;;;;;43.65;27.75;;;3.40;63.20;;;;;;5072535;28;20039;-66
2022/01/13 05:03:33;;;;;;;44.85;26.58;;;3.40;63.20;;;;;;5072553;28;20103;-66
2022/01/13 05:05:59;;;;;;;43.75;25.92;;;3.40;63.10;;;;;;5072822;28;20028;-66
2022/01/13 05:08:25;;;;;;;43.53;26.52;;;3.40;63.10;;;;;;5072818;28;20503;-66
2022/01/13 05:10:50;;;;;;;43.17;26.83;;;3.40;63.40;;;;;;5072842;28;20100;-66
2022/01/13 05:13:16;;;;;;;41.05;26.30;;;3.40;63.40;;;;;;5072314;28;20135;-67
2022/01/13 05:15:44;;;;;;;44.53;27.35;;;3.30;63.40;;;;;;5073110;28;20033;-66
2022/01/13 05:18:27;;;;;;;43.28;27.08;;;3.40;63.50;;;;;;5071983;28;20496;-69
2022/01/13 05:21:01;;;;;;;43.33;27.30;;;3.30;63.20;;;;;;5072245;28;20058;-66
2022/01/13 05:23:27;;;;;;;45.22;26.77;;;3.30;63.50;;;;;;5070724;28;20274;-67
2022/01/13 05:25:53;;;;;;;44.13;26.95;;;3.20;63.70;;;;;;5072077;28;20025;-66
2022/01/13 05:28:18;;;;;;;43.90;26.70;;;3.30;63.80;;;;;;5070397;28;20040;-67
2022/01/13 05:30:44;;;;;;;45.20;28.35;;;3.30;63.60;;;;;;5087400;28;20039;-66
2022/01/13 05:33:10;;;;;;;45.17;27.95;;;3.40;63.50;;;;;;5071591;28;20103;-67
2022/01/13 05:35:36;;;;;;;45.58;28.67;;;3.40;63.20;;;;;;5071542;28;20031;-67
2022/01/13 05:38:06;;;;;;;45.30;28.95;;;3.40;63.00;;;;;;5072158;28;20047;-66
2022/01/13 05:40:34;;;;;;;46.47;28.38;;;3.30;63.40;;;;;;5071795;28;20037;-67
2022/01/13 05:43:00;;;;;;;44.90;28.13;;;3.30;63.60;;;;;;5072542;28;20415;-67
2022/01/13 05:45:29;;;;;;;50.10;29.30;;;3.30;63.40;;;;;;5071965;28;20025;-66
2022/01/13 05:47:57;;;;;;;46.40;29.75;;;3.40;63.50;;;;;;5072340;28;20044;-66
2022/01/13 05:50:24;;;;;;;47.20;29.50;;;3.40;63.20;;;;;;5071841;28;20111;-67
2022/01/13 05:52:50;;;;;;;47.50;29.55;;;3.40;63.30;;;;;;5072226;28;20082;-66
2022/01/13 05:55:16;;;;;;;47.70;29.77;;;3.40;63.30;;;;;;5069419;28;20037;-65
2022/01/13 05:57:42;;;;;;;49.75;31.05;;;3.40;63.20;;;;;;5063238;28;20111;-67
2022/01/13 06:00:12;;;;;;;50.17;30.23;;;3.40;63.10;;;;;;5071678;28;20151;-69
2022/01/13 06:02:38;;;;;;;49.28;29.13;;;3.30;63.10;;;;;;5070319;28;20021;-70
2022/01/13 06:05:05;;;;;;;51.30;30.13;;;3.30;63.30;;;;;;5072352;28;20052;-67
2022/01/13 06:07:31;;;;;;;50.42;30.35;;;3.30;63.40;;;;;;5070205;28;20551;-65
2022/01/13 06:09:57;;;;;;;52.20;31.50;;;3.30;63.50;;;;;;5070912;28;20115;-68
2022/01/13 06:12:32;;;;;;;55.70;31.33;;;3.30;63.40;;;;;;5071085;28;20128;-66
2022/01/13 06:15:02;;;;;;;52.90;31.30;;;3.30;63.50;;;;;;5072164;28;20565;-67
2022/01/13 06:17:28;;;;;;;52.70;31.23;;;3.40;63.50;;;;;;5071684;28;20338;-66
2022/01/13 06:19:55;;;;;;;52.55;30.35;;;3.40;63.30;;;;;;5078416;28;20149;-67
2022/01/13 06:22:22;;;;;;;51.03;31.73;;;3.40;63.30;;;;;;5071488;28;20025;-68
2022/01/13 06:24:49;;;;;;;50.78;30.55;;;3.40;63.30;;;;;;5070636;28;20035;-66
2022/01/13 06:27:15;;;;;;;53.10;31.08;;;3.40;63.30;;;;;;5070276;28;20461;-66
2022/01/13 06:29:41;;;;;;;55.70;31.95;;;3.50;63.20;;;;;;5071912;28;20036;-66
2022/01/13 06:32:07;;;;;;;56.58;32.22;;;3.60;63.20;;;;;;5071077;28;20389;-65
2022/01/13 06:34:33;;;;;;;60.85;32.72;;;3.70;62.80;;;;;;5068676;28;20118;-66
2022/01/13 06:36:59;;;;;;;55.30;31.77;;;3.60;62.50;;;;;;5088806;28;20036;-65
2022/01/13 06:39:24;;;;;;;52.15;32.35;;;3.60;62.70;;;;;;5087323;28;20075;-68
2022/01/13 06:41:50;;;;;;;51.65;31.95;;;3.60;62.80;;;;;;5071504;28;20028;-68
2022/01/13 06:44:17;;;;;;;55.35;31.90;;;3.60;62.90;;;;;;5068937;28;20373;-68
2022/01/13 06:46:42;;;;;;;54.53;31.58;;;3.70;62.70;;;;;;5071184;28;20465;-67
2022/01/13 06:49:08;;;;;;;56.05;32.03;;;3.70;62.80;;;;;;5071666;28;20109;-67
2022/01/13 06:51:34;;;;;;;54.95;31.63;;;3.70;62.60;;;;;;5070524;28;20028;-67
2022/01/13 06:54:00;;;;;;;56.05;32.50;;;3.70;62.70;;;;;;5090951;28;20024;-68
2022/01/13 06:56:26;;;;;;;52.80;31.27;;;3.70;62.80;;;;;;5095088;28;20028;-67
2022/01/13 06:58:53;;;;;;;53.65;31.85;;;3.70;63.50;;;;;;5093222;28;20077;-68
2022/01/13 07:01:21;;;;;;;55.33;31.52;;;3.70;63.00;;;;;;5073818;28;20395;-67
2022/01/13 07:03:47;;;;;;;53.95;32.58;;;3.70;63.10;;;;;;5074826;28;20016;-67
2022/01/13 07:06:13;;;;;;;58.05;31.85;;;3.70;63.10;;;;;;5069705;28;20021;-67
2022/01/13 07:08:39;;;;;;;50.38;31.08;;;3.80;63.20;;;;;;5072162;28;20028;-67
2022/01/13 07:11:04;;;;;;;52.40;31.45;;;3.90;63.00;;;;;;5073260;28;20024;-69
2022/01/13 07:13:32;;;;;;;50.70;31.80;;;3.90;62.90;;;;;;5073414;28;20052;-68
2022/01/13 07:16:00;;;;;;;53.03;32.30;;;3.90;63.00;;;;;;5073490;28;20029;-68
2022/01/13 07:18:27;;;;;;;52.70;32.58;;;3.90;62.70;;;;;;5072597;28;20046;-67
2022/01/13 07:20:54;;;;;;;51.78;32.50;;;3.90;62.60;;;;;;5073935;28;20468;-68
2022/01/13 07:23:19;;;;;;;52.28;31.52;;;3.80;62.90;;;;;;5073586;28;20036;-66
2022/01/13 07:25:45;;;;;;;62.50;33.85;;;3.80;62.70;;;;;;5073192;28;20021;-66
2022/01/13 07:28:11;;;;;;;54.00;31.98;;;3.80;62.70;;;;;;5065319;28;20380;-68
2022/01/13 07:30:36;;;;;;;55.05;32.63;;;3.70;62.60;;;;;;5054140;28;20035;-68
2022/01/13 07:33:02;;;;;;;57.67;33.22;;;3.80;62.90;;;;;;5054985;28;20469;-67
2022/01/13 07:35:28;;;;;;;65.00;34.95;;;3.90;62.80;;;;;;5053724;28;20040;-69
2022/01/13 07:37:54;;;;;;;58.47;33.78;;;4.00;62.50;;;;;;5053247;28;20462;-68
2022/01/13 07:40:21;;;;;;;64.93;33.08;;;4.00;62.10;;;;;;5054971;28;20372;-67
2022/01/13 07:42:47;;;;;;;56.65;32.10;;;4.00;61.90;;;;;;5054647;28;20025;-68
2022/01/13 07:45:15;;;;;;;58.63;34.20;;;3.90;61.90;;;;;;5071780;28;20029;-68
2022/01/13 07:47:41;;;;;;;65.63;34.08;;;3.80;62.00;;;;;;5072687;28;20289;-70
2022/01/13 07:50:09;;;;;;;60.75;33.70;;;3.80;62.30;;;;;;5073859;28;20048;-68
2022/01/13 07:52:35;;;;;;;59.92;32.03;;;3.80;62.00;;;;;;5073806;28;20032;-70
2022/01/13 07:55:01;;;;;;;65.00;32.42;;;3.90;61.90;;;;;;5072816;28;20020;-68
2022/01/13 07:57:27;;;;;;;54.97;32.70;;;3.80;62.00;;;;;;5072098;28;20029;-67
2022/01/13 07:59:52;;;;;;;53.80;32.58;;;3.80;62.30;;;;;;5072076;28;20047;-69
2022/01/13 08:02:19;;;;;;;56.58;33.50;;;3.80;61.90;;;;;;5074081;28;20037;-68
2022/01/13 08:04:45;;;;;;;58.58;32.25;;;3.80;62.00;;;;;;5074069;28;20060;-69
2022/01/13 08:07:11;;;;;;;53.45;31.67;;;3.80;62.10;;;;;;5072728;28;20021;-68
2022/01/13 08:09:36;;;;;;;55.33;32.63;;;3.80;62.20;;;;;;5072092;28;20032;-70
2022/01/13 08:12:03;;;;;;;53.05;32.13;;;3.80;62.00;;;;;;5072428;28;20045;-68
2022/01/13 08:14:28;;;;;;;51.03;31.95;;;3.70;62.20;;;;;;5072578;28;20083;-69
2022/01/13 08:16:58;;;;;;;52.58;31.60;;;3.70;62.30;;;;;;5074355;28;20052;-70
2022/01/13 08:22:09;;;;;;;55.70;32.45;;;3.70;62.30;;;;;;5073862;28;20046;-68
2022/01/13 08:24:34;;;;;;;56.38;31.15;;;3.60;62.40;;;;;;5073820;28;20021;-69
2022/01/13 08:27:00;;;;;;;55.47;31.67;;;3.50;62.70;;;;;;5072265;28;20028;-70
2022/01/13 08:29:26;;;;;;;54.60;32.03;;;3.60;62.90;;;;;;5073285;28;20458;-70
2022/01/13 08:31:52;;;;;;;50.85;30.85;;;3.60;62.50;;;;;;5073097;28;20024;-69
2022/01/13 08:34:18;;;;;;;47.95;29.55;;;3.70;62.20;;;;;;5072904;28;20025;-71
2022/01/13 08:36:44;;;;;;;48.80;28.55;;;3.60;62.20;;;;;;5071997;28;20294;-68
2022/01/13 08:39:11;;;;;;;51.00;29.40;;;3.60;62.30;;;;;;5073574;28;20028;-68
2022/01/13 08:41:36;;;;;;;59.00;29.23;;;3.70;62.30;;;;;;5073099;28;20024;-68
2022/01/13 08:44:02;;;;;;;45.45;27.30;;;3.80;62.10;;;;;;5072053;28;20086;-70
2022/01/13 08:46:28;;;;;;;45.75;25.75;;;3.80;61.80;;;;;;5070808;28;20155;-69
2022/01/13 08:48:54;;;;;;;41.85;25.67;;;3.90;61.80;;;;;;5073813;28;20112;-71
2022/01/13 08:51:20;;;;;;;49.13;28.40;;;3.90;61.40;;;;;;5072275;28;20150;-67
2022/01/13 08:53:47;;;;;;;47.47;28.02;;;3.90;61.20;;;;;;5071400;28;20037;-70
2022/01/13 08:56:14;;;;;;;47.85;26.88;;;4.00;61.50;;;;;;5073546;28;20020;-70
2022/01/13 08:58:39;;;;;;;45.30;26.20;;;4.00;61.10;;;;;;5071026;28;20115;-69
2022/01/13 09:01:07;;;;;;;42.08;24.85;;;4.10;60.90;;;;;;5072028;28;20132;-70
2022/01/13 09:03:33;;;;;;;38.95;24.35;;;4.20;61.00;;;;;;5072200;28;20071;-67
2022/01/13 09:05:59;;;;;;;43.30;24.30;;;4.30;60.30;;;;;;5071817;28;20020;-69
2022/01/13 09:08:25;;;;;;;45.53;26.55;;;4.40;60.10;;;;;;5072677;28;20108;-70
2022/01/13 09:10:51;;;;;;;39.28;23.88;;;4.50;60.20;;;;;;5070991;28;20059;-68
2022/01/13 09:13:17;;;;;;;45.70;25.60;;;4.50;59.40;;;;;;5072694;28;20172;-71
2022/01/13 09:16:41;;;;;;;53.58;25.55;;;4.50;60.10;;;;;;5070889;28;20107;-68
2022/01/13 09:21:26;;;;;;;38.92;22.42;;;4.50;59.20;;;;;;5072981;28;20029;-70
2022/01/13 09:23:52;;;;;;;46.17;23.60;;;4.60;59.20;;;;;;5071392;28;20031;-72
2022/01/13 09:26:18;;;;;;;39.42;21.45;;;4.70;58.90;;;;;;5072740;28;20025;-69
2022/01/13 09:28:44;;;;;;;34.60;20.35;;;4.80;58.70;;;;;;5066383;28;20466;-70
2022/01/13 09:31:10;;;;;;;33.95;21.35;;;4.80;58.00;;;;;;5072364;28;20552;-71
2022/01/13 09:33:36;;;;;;;38.90;22.17;;;4.90;57.80;;;;;;5070934;28;20107;-69
2022/01/13 09:36:03;;;;;;;33.83;21.48;;;5.00;57.80;;;;;;5067633;28;20423;-70
2022/01/13 09:38:29;;;;;;;36.00;22.00;;;5.10;57.00;;;;;;5063668;28;20051;-68
2022/01/13 09:40:55;;;;;;;34.20;20.48;;;5.10;57.00;;;;;;5057295;28;20032;-71
2022/01/13 09:43:25;;;;;;;32.25;19.23;;;5.30;57.10;;;;;;5056331;28;20025;-71
2022/01/13 09:45:52;;;;;;;34.67;22.23;;;5.50;55.80;;;;;;5054940;28;20517;-71
2022/01/13 09:48:18;;;;;;;29.25;19.55;;;5.60;55.90;;;;;;5069464;28;20060;-70
2022/01/13 09:50:48;;;;;;;30.95;19.92;;;5.90;55.10;;;;;;5067485;28;20166;-70
2022/01/13 09:53:16;;;;;;;28.83;19.83;;;5.90;54.30;;;;;;5075627;28;20032;-69
2022/01/13 09:55:44;;;;;;;31.85;20.02;;;6.00;54.80;;;;;;5072197;28;20024;-69
2022/01/13 09:58:10;;;;;;;29.73;19.17;;;6.20;54.10;;;;;;5070093;28;20473;-70
2022/01/13 10:00:40;;;;;;;29.02;17.88;;;6.40;52.90;;;;;;5069106;28;20107;-72
2022/01/13 10:03:23;;;;;;;27.85;18.40;;;6.30;52.90;;;;;;5062386;28;20048;-70
2022/01/13 10:05:55;;;;;;;28.05;17.77;;;6.30;52.90;;;;;;5066654;28;20033;-71
2022/01/13 10:08:47;;;;;;;27.93;18.03;;;6.40;52.80;;;;;;5060048;28;20032;-70
2022/01/13 10:11:36;;;;;;;31.67;17.58;;;6.50;52.60;;;;;;5076401;28;20112;-68
2022/01/13 10:17:05;;;;;;;25.52;16.20;;;6.60;51.70;;;;;;5065688;28;20032;-65
2022/01/13 10:19:42;;;;;;;25.83;16.05;;;6.60;51.50;;;;;;5061285;28;20124;-68
2022/01/13 10:22:19;;;;;;;25.50;16.20;;;6.60;52.00;;;;;;5068505;28;20324;-68
2022/01/13 10:24:52;;;;;;;26.50;16.40;;;6.70;51.30;;;;;;5088606;28;20033;-67
2022/01/13 10:27:22;;;;;;;26.58;17.00;;;6.70;51.60;;;;;;5062160;28;20032;-66
2022/01/13 10:29:51;;;;;;;22.27;15.52;;;6.80;51.90;;;;;;5054204;28;20114;-70
2022/01/13 10:32:20;;;;;;;24.60;16.38;;;7.00;51.10;;;;;;5063570;28;20029;-67
2022/01/13 10:34:48;;;;;;;25.35;16.08;;;7.00;51.00;;;;;;5061912;28;20036;-68
2022/01/13 10:37:28;;;;;;;26.27;16.95;;;7.00;50.60;;;;;;5061654;28;20036;-67
2022/01/13 10:40:03;;;;;;;24.38;16.23;;;6.90;51.00;;;;;;5067631;28;20302;-67
2022/01/13 10:45:08;;;;;;;23.55;15.82;;;7.20;50.40;;;;;;5069199;28;20485;-67
2022/01/13 10:47:35;;;;;;;25.33;15.98;;;7.20;50.50;;;;;;5065702;28;20223;-66
2022/01/13 10:50:10;;;;;;;23.70;14.05;;;7.50;49.80;;;;;;5083312;28;20427;-67
2022/01/13 10:52:37;;;;;;;26.80;14.23;;;7.90;49.20;;;;;;5066798;28;20033;-66
2022/01/13 10:55:16;;;;;;;29.75;15.27;;;8.00;48.90;;;;;;5067476;28;20028;-67
2022/01/13 10:57:43;;;;;;;22.73;15.35;;;8.00;48.60;;;;;;5061756;28;20032;-71
2022/01/13 11:00:16;;;;;;;24.73;14.98;;;8.00;48.80;;;;;;5071006;28;20027;-70
2022/01/13 11:02:42;;;;;;;25.88;14.95;;;7.80;48.70;;;;;;5068811;28;20075;-69
2022/01/13 11:05:10;;;;;;;23.98;16.15;;;7.50;49.80;;;;;;5070647;28;20067;-70
2022/01/13 11:07:37;;;;;;;24.27;15.50;;;7.40;50.10;;;;;;5061586;28;20025;-66
2022/01/13 11:10:06;;;;;;;22.27;14.10;;;7.30;50.30;;;;;;5052962;28;20044;-69
2022/01/13 11:15:26;;;;;;;21.88;14.38;;;7.00;50.80;;;;;;5069607;28;20043;-70
2022/01/13 11:17:57;;;;;;;25.73;15.07;;;6.90;51.80;;;;;;5054980;28;20056;-69
2022/01/13 11:20:25;;;;;;;24.27;14.32;;;6.80;51.80;;;;;;5060119;28;20485;-70
2022/01/13 11:22:54;;;;;;;22.50;13.55;;;6.80;51.80;;;;;;5065262;28;20048;-70
2022/01/13 11:25:24;;;;;;;24.73;13.98;;;6.80;52.70;;;;;;5069838;28;20029;-71
2022/01/13 11:27:51;;;;;;;22.27;14.20;;;6.80;52.50;;;;;;5052538;28;20108;-71
2022/01/13 11:30:20;;;;;;;19.30;12.93;;;6.90;52.00;;;;;;5063310;28;20060;-69
2022/01/13 11:32:48;;;;;;;20.75;13.07;;;7.00;52.20;;;;;;5068253;28;20031;-70
2022/01/13 11:35:19;;;;;;;22.42;12.70;;;7.00;51.60;;;;;;5072625;28;20029;-71
2022/01/13 11:37:45;;;;;;;23.45;12.88;;;7.10;51.60;;;;;;5083512;28;20029;-70
2022/01/13 11:40:26;;;;;;;19.45;12.07;;;7.20;51.60;;;;;;5057762;28;20068;-71
2022/01/13 11:42:53;;;;;;;20.92;12.65;;;7.20;51.70;;;;;;5069063;28;20215;-71
2022/01/13 11:45:20;;;;;;;19.30;11.90;;;7.20;50.90;;;;;;5061781;28;20077;-70
2022/01/13 11:47:47;;;;;;;16.60;11.45;;;7.10;51.00;;;;;;5059864;28;20049;-70
2022/01/13 11:50:19;;;;;;;20.30;11.32;;;7.20;51.00;;;;;;5059060;28;20032;-68
2022/01/13 11:52:53;;;;;;;19.33;10.70;;;7.30;51.10;;;;;;5073342;28;20020;-69
2022/01/13 11:55:29;;;;;;;19.60;11.95;;;7.30;51.10;;;;;;5074441;28;20029;-70
2022/01/13 11:58:16;;;;;;;20.77;12.73;;;7.40;50.70;;;;;;5065794;28;20024;-69
2022/01/13 12:00:46;;;;;;;19.33;12.15;;;7.60;50.30;;;;;;5089130;28;20024;-68
2022/01/13 12:03:32;;;;;;;18.30;10.82;;;7.70;51.00;;;;;;5065311;28;20025;-70
2022/01/13 12:06:00;;;;;;;18.27;11.02;;;7.80;50.20;;;;;;5070349;28;20102;-70
2022/01/13 12:08:48;;;;;;;18.77;11.63;;;7.90;49.80;;;;;;5060273;28;20028;-66
2022/01/13 12:11:55;;;;;;;17.88;11.35;;;7.90;49.80;;;;;;5067482;28;20033;-69
2022/01/13 12:14:32;;;;;;;17.27;11.13;;;7.80;50.00;;;;;;5071687;28;20372;-69
2022/01/13 12:17:06;;;;;;;19.52;11.50;;;7.80;50.60;;;;;;5071190;28;20016;-68
2022/01/13 12:19:46;;;;;;;21.48;11.13;;;7.80;50.80;;;;;;5059318;28;20171;-71
2022/01/13 12:22:19;;;;;;;21.27;11.50;;;7.80;50.30;;;;;;5089018;28;20021;-68
2022/01/13 12:24:56;;;;;;;;;;;7.90;50.50;;;;;;5068952;28;20034;-70
2022/01/13 12:27:26;;;;;;;19.15;10.85;;;8.00;50.00;;;;;;5087235;28;20053;-69
2022/01/13 12:30:07;;;;;;;20.90;12.07;;;8.00;50.10;;;;;;5072770;28;20074;-69
2022/01/13 12:32:41;;;;;;;17.02;10.43;;;8.10;49.70;;;;;;5062482;28;20028;-71
2022/01/13 12:35:13;;;;;;;24.88;11.48;;;8.10;49.80;;;;;;5068031;28;20031;-68
2022/01/13 12:37:39;;;;;;;17.92;12.10;;;8.10;49.60;;;;;;5068309;28;20044;-70
2022/01/13 12:40:18;;;;;;;34.40;18.83;;;8.10;50.00;;;;;;5057146;28;20033;-68
2022/01/13 12:42:54;;;;;;;16.52;11.23;;;8.10;49.90;;;;;;5071832;28;20024;-66
2022/01/13 12:45:29;;;;;;;17.65;10.68;;;8.20;49.60;;;;;;5072379;28;20111;-67
2022/01/13 12:48:09;;;;;;;22.13;11.30;;;8.20;49.60;;;;;;5069385;28;20051;-69
2022/01/13 12:50:44;;;;;;;16.65;10.52;;;8.10;49.60;;;;;;5072350;28;20025;-69
2022/01/13 12:53:25;;;;;;;20.60;10.50;;;8.10;49.60;;;;;;5072310;28;20024;-68
2022/01/13 12:56:05;;;;;;;21.90;12.07;;;8.00;50.20;;;;;;5075144;28;20036;-68
2022/01/13 12:58:36;;;;;;;17.25;10.70;;;7.90;50.30;;;;;;5058485;28;20032;-69
2022/01/13 13:01:07;;;;;;;24.50;11.07;;;7.90;50.60;;;;;;5052754;28;20039;-67
2022/01/13 13:03:33;;;;;;;31.83;10.73;;;8.00;50.50;;;;;;5065941;28;20066;-68
2022/01/13 13:06:00;;;;;;;16.63;10.60;;;8.10;50.30;;;;;;5070721;28;20032;-68
2022/01/13 13:08:27;;;;;;;20.10;10.57;;;8.00;50.10;;;;;;5071284;28;20112;-69
2022/01/13 13:11:00;;;;;;;18.13;10.75;;;8.00;50.40;;;;;;5051788;28;20083;-67
2022/01/13 13:13:28;;;;;;;15.02;9.13;;;8.10;50.20;;;;;;5056928;28;20041;-68
2022/01/13 13:15:58;;;;;;;16.70;10.48;;;8.10;50.20;;;;;;5065211;28;20473;-67
2022/01/13 13:18:26;;;;;;;19.83;11.23;;;8.10;50.20;;;;;;5059665;28;20028;-69
2022/01/13 13:20:53;;;;;;;18.52;10.55;;;8.10;50.30;;;;;;5070887;28;20028;-68
2022/01/13 13:23:33;;;;;;;15.80;10.00;;;8.10;50.30;;;;;;5066600;28;20099;-70